Time;durP1;ratioP1;P1;durP2;ratioP2;P2;SDS_P1;SDS_P2;PMS_P1;PMS_P2;Temp;Humidity;BMP_temperature;BMP_pressure;BME280_temperature;BME280_humidity;BME280_pressure;Samples;Min_cycle;Max_cycle;Signal;HPM_P1;HPM_P2
2022/05/23 00:00:35;;;;;;;5.90;4.03;;;16.70;72.40;;;;;;5054664;28;20445;-64
2022/05/23 00:03:04;;;;;;;3.57;2.47;;;16.70;72.30;;;;;;5053695;28;20430;-64
2022/05/23 00:05:31;;;;;;;4.30;3.10;;;16.50;73.10;;;;;;5054574;28;20432;-64
2022/05/23 00:08:00;;;;;;;5.90;3.60;;;16.50;73.30;;;;;;5054804;28;20445;-64
2022/05/23 00:10:27;;;;;;;7.67;4.20;;;16.40;73.90;;;;;;5052741;28;20495;-66
2022/05/23 00:12:55;;;;;;;6.50;4.30;;;16.30;74.90;;;;;;5054412;28;21004;-64
2022/05/23 00:15:22;;;;;;;12.27;6.40;;;16.30;75.00;;;;;;5053772;28;20503;-64
2022/05/23 00:17:50;;;;;;;9.23;5.20;;;16.20;75.20;;;;;;5054074;28;20441;-64
2022/05/23 00:20:23;;;;;;;5.83;4.33;;;16.20;75.40;;;;;;5053131;28;20945;-64
2022/05/23 00:22:50;;;;;;;7.67;4.40;;;16.20;75.80;;;;;;5054006;28;20440;-64
2022/05/23 00:25:18;;;;;;;7.53;3.60;;;16.20;76.40;;;;;;5053983;28;20503;-64
2022/05/23 00:27:46;;;;;;;7.57;4.17;;;16.20;76.50;;;;;;5053162;28;20460;-64
2022/05/23 00:30:16;;;;;;;4.80;3.43;;;16.20;76.20;;;;;;5054142;28;20437;-64
2022/05/23 00:35:30;;;;;;;10.53;5.50;;;16.20;77.00;;;;;;5053557;28;21060;-65
2022/05/23 00:37:58;;;;;;;7.70;5.10;;;16.10;77.10;;;;;;5053571;28;20931;-64
2022/05/23 00:40:37;;;;;;;7.87;5.87;;;16.10;77.50;;;;;;5053996;28;20437;-64
2022/05/23 00:43:16;;;;;;;7.93;4.50;;;16.10;77.90;;;;;;5053420;28;20433;-64
2022/05/23 00:45:50;;;;;;;8.30;4.97;;;16.10;77.70;;;;;;5053906;28;20445;-65
2022/05/23 00:48:19;;;;;;;8.23;4.90;;;16.10;78.00;;;;;;5053371;28;20546;-64
2022/05/23 00:50:54;;;;;;;5.70;3.63;;;16.10;78.10;;;;;;5053809;28;20808;-64
2022/05/23 00:53:27;;;;;;;6.23;3.10;;;16.10;78.50;;;;;;5051923;28;20920;-64
2022/05/23 00:55:55;;;;;;;6.10;3.93;;;16.10;78.20;;;;;;5053226;28;20440;-64
2022/05/23 00:58:26;;;;;;;5.97;3.43;;;16.10;78.10;;;;;;5053446;28;20472;-64
2022/05/23 01:00:55;;;;;;;3.67;3.07;;;16.10;78.70;;;;;;5053248;28;20989;-64
2022/05/23 01:03:22;;;;;;;8.23;3.63;;;16.10;78.80;;;;;;5053144;28;20468;-64
2022/05/23 01:05:54;;;;;;;3.77;2.80;;;16.10;79.00;;;;;;5052728;28;20837;-66
2022/05/23 01:08:22;;;;;;;3.83;2.97;;;16.20;78.40;;;;;;5053470;28;20846;-64
2022/05/23 01:10:49;;;;;;;4.17;2.93;;;16.20;78.60;;;;;;5052343;28;20849;-64
2022/05/23 01:13:17;;;;;;;6.70;3.80;;;16.20;78.00;;;;;;5042363;28;20461;-64
2022/05/23 01:15:46;;;;;;;8.90;4.60;;;16.20;78.20;;;;;;5053133;28;20511;-65
2022/05/23 01:18:14;;;;;;;7.20;3.90;;;16.20;78.20;;;;;;5052749;28;20515;-64
2022/05/23 01:20:42;;;;;;;5.80;3.20;;;16.20;78.20;;;;;;5053036;28;20443;-64
2022/05/23 01:23:20;;;;;;;4.53;3.70;;;16.20;78.30;;;;;;5052470;28;20838;-64
2022/05/23 01:25:49;;;;;;;4.60;3.20;;;16.20;78.30;;;;;;5052527;28;20495;-64
2022/05/23 01:28:17;;;;;;;4.23;3.10;;;16.20;78.60;;;;;;5052222;28;20491;-64
2022/05/23 01:30:46;;;;;;;4.50;3.50;;;16.20;78.60;;;;;;5053045;28;20762;-64
2022/05/23 01:33:15;;;;;;;9.07;4.40;;;16.20;79.20;;;;;;5052656;28;20524;-64
2022/05/23 01:35:42;;;;;;;4.60;3.60;;;16.20;79.60;;;;;;5052768;28;20480;-64
2022/05/23 01:38:12;;;;;;;6.43;3.70;;;16.20;79.80;;;;;;5052652;28;20507;-64
2022/05/23 01:40:39;;;;;;;6.50;3.70;;;16.20;79.50;;;;;;5052679;28;20437;-64
2022/05/23 01:43:08;;;;;;;4.83;3.97;;;16.20;79.50;;;;;;5052420;28;20433;-64
2022/05/23 01:45:38;;;;;;;6.30;3.90;;;16.20;79.90;;;;;;5052150;28;20433;-65
2022/05/23 01:48:07;;;;;;;6.10;3.93;;;16.20;80.20;;;;;;5052558;28;20894;-64
2022/05/23 01:50:34;;;;;;;8.70;5.13;;;16.20;80.30;;;;;;5052234;28;20783;-64
2022/05/23 01:53:02;;;;;;;10.13;5.10;;;16.20;80.50;;;;;;5052537;28;20448;-64
2022/05/23 01:55:29;;;;;;;9.23;5.73;;;16.10;80.40;;;;;;5051706;28;20487;-64
2022/05/23 01:57:56;;;;;;;6.17;4.13;;;16.10;80.50;;;;;;5052500;28;20927;-64
2022/05/23 02:03:15;;;;;;;4.80;3.70;;;16.20;80.90;;;;;;5045152;28;20520;-64
2022/05/23 02:05:42;;;;;;;5.40;3.60;;;16.20;80.30;;;;;;5052349;28;20459;-66
2022/05/23 02:08:09;;;;;;;4.13;3.00;;;16.20;80.00;;;;;;5051967;28;20487;-64
2022/05/23 02:10:36;;;;;;;5.03;3.00;;;16.20;80.30;;;;;;5052605;28;20474;-64
2022/05/23 02:13:04;;;;;;;3.40;2.47;;;16.20;81.10;;;;;;5052309;28;20437;-66
2022/05/23 02:15:33;;;;;;;5.90;3.10;;;16.20;80.30;;;;;;5052241;28;20879;-64
2022/05/23 02:18:01;;;;;;;3.37;3.00;;;16.30;80.20;;;;;;5052179;28;20449;-66
2022/05/23 02:20:31;;;;;;;4.20;2.87;;;16.30;80.50;;;;;;5051743;28;20475;-65
2022/05/23 02:22:59;;;;;;;4.53;3.17;;;16.30;80.10;;;;;;5052267;28;20496;-64
2022/05/23 02:25:27;;;;;;;3.60;2.97;;;16.30;79.90;;;;;;5051366;28;20441;-64
2022/05/23 02:27:55;;;;;;;4.60;3.40;;;16.30;79.80;;;;;;5052101;28;20445;-64
2022/05/23 02:30:23;;;;;;;5.50;3.83;;;16.30;80.00;;;;;;5051130;28;20927;-64
2022/05/23 02:32:52;;;;;;;6.70;3.50;;;16.30;80.00;;;;;;5052082;28;20441;-64
2022/05/23 02:35:20;;;;;;;6.23;3.10;;;16.30;80.00;;;;;;5055338;28;20512;-64
2022/05/23 02:37:48;;;;;;;6.10;3.90;;;16.30;80.50;;;;;;5055932;28;20436;-64
2022/05/23 02:40:15;;;;;;;6.20;3.30;;;16.20;80.70;;;;;;5056098;28;20870;-64
2022/05/23 02:42:47;;;;;;;5.63;3.50;;;16.10;81.40;;;;;;5055568;28;20440;-65
2022/05/23 02:45:14;;;;;;;4.17;3.10;;;16.10;81.50;;;;;;5056019;28;20437;-65
2022/05/23 02:47:46;;;;;;;6.63;3.47;;;16.10;81.40;;;;;;5055584;28;20488;-64
2022/05/23 02:50:16;;;;;;;3.70;3.30;;;16.10;81.70;;;;;;5055792;28;20441;-64
2022/05/23 02:52:45;;;;;;;4.60;3.07;;;16.10;81.60;;;;;;5054997;28;20431;-64
2022/05/23 02:55:13;;;;;;;6.27;4.00;;;16.10;81.80;;;;;;5055288;28;20906;-65
2022/05/23 02:57:41;;;;;;;3.47;3.00;;;16.20;81.80;;;;;;5055820;28;20861;-64
2022/05/23 03:00:10;;;;;;;3.97;3.57;;;16.20;81.80;;;;;;5054606;28;20445;-64
2022/05/23 03:05:24;;;;;;;5.17;3.77;;;16.20;82.00;;;;;;5055329;28;20435;-64
2022/05/23 03:07:51;;;;;;;4.10;3.60;;;16.20;82.10;;;;;;5055773;28;20437;-64
2022/05/23 03:10:19;;;;;;;4.10;3.70;;;16.20;82.00;;;;;;5054535;28;20441;-64
2022/05/23 03:12:46;;;;;;;4.90;4.00;;;16.20;82.10;;;;;;5055247;28;20523;-64
2022/05/23 03:15:14;;;;;;;6.93;3.20;;;16.20;82.50;;;;;;5055326;28;20571;-65
2022/05/23 03:17:41;;;;;;;5.13;3.63;;;16.20;82.60;;;;;;5055095;28;20472;-65
2022/05/23 03:20:10;;;;;;;4.40;3.10;;;16.20;82.70;;;;;;5055603;28;20436;-64
2022/05/23 03:28:12;;;;;;;3.90;2.80;;;16.30;83.20;;;;;;5055066;28;20989;-65
2022/05/23 03:30:40;;;;;;;5.50;3.60;;;16.30;82.90;;;;;;5055013;28;20437;-65
2022/05/23 03:33:08;;;;;;;4.20;3.57;;;16.30;83.10;;;;;;5054808;28;20846;-65
2022/05/23 03:35:37;;;;;;;6.07;3.07;;;16.30;83.00;;;;;;5054907;28;20997;-65
2022/05/23 03:38:07;;;;;;;6.43;3.50;;;16.20;83.00;;;;;;5054805;28;20440;-66
2022/05/23 03:40:36;;;;;;;4.10;3.17;;;16.20;83.60;;;;;;5055275;28;20441;-64
2022/05/23 03:43:03;;;;;;;6.37;3.77;;;16.10;83.90;;;;;;5054937;28;20794;-64
2022/05/23 03:45:31;;;;;;;7.97;4.23;;;16.10;84.10;;;;;;5054070;28;20444;-64
2022/05/23 03:47:59;;;;;;;4.23;3.83;;;16.10;83.70;;;;;;5054489;28;20468;-64
2022/05/23 03:50:28;;;;;;;8.93;3.33;;;16.10;83.80;;;;;;5053728;28;20441;-64
2022/05/23 03:52:56;;;;;;;6.10;3.77;;;16.00;84.30;;;;;;5054782;28;20476;-64
2022/05/23 03:55:25;;;;;;;4.23;3.50;;;16.10;84.30;;;;;;5054101;28;20574;-66
2022/05/23 03:57:52;;;;;;;6.90;4.10;;;16.10;84.10;;;;;;5054700;28;20440;-64
2022/05/23 04:00:20;;;;;;;5.33;2.87;;;16.20;84.20;;;;;;5054506;28;20437;-64
2022/05/23 04:02:47;;;;;;;4.60;3.03;;;16.20;83.80;;;;;;5054214;28;20928;-64
2022/05/23 04:05:16;;;;;;;5.20;2.70;;;16.10;83.50;;;;;;5054903;28;20445;-64
2022/05/23 04:07:43;;;;;;;3.97;3.07;;;16.10;83.70;;;;;;5054560;28;20452;-64
2022/05/23 04:10:14;;;;;;;4.23;3.27;;;16.10;83.20;;;;;;5054558;28;20451;-64
2022/05/23 04:12:43;;;;;;;6.33;3.50;;;16.10;83.30;;;;;;5054400;28;20483;-64
2022/05/23 04:15:12;;;;;;;4.80;3.33;;;16.10;83.50;;;;;;5054704;28;20557;-65
2022/05/23 04:17:41;;;;;;;5.17;4.10;;;16.10;83.80;;;;;;5054178;28;20444;-64
2022/05/23 04:20:10;;;;;;;8.10;3.67;;;16.10;84.60;;;;;;5054449;28;20498;-64
2022/05/23 04:22:37;;;;;;;4.03;3.50;;;16.10;84.50;;;;;;5054639;28;20437;-64
2022/05/23 04:25:06;;;;;;;5.20;3.90;;;16.10;84.70;;;;;;5053770;28;20445;-65
2022/05/23 04:27:34;;;;;;;5.00;3.40;;;16.20;84.30;;;;;;5054216;28;20445;-64
2022/05/23 04:30:03;;;;;;;5.73;3.60;;;16.10;84.80;;;;;;5054334;28;20437;-65
2022/05/23 04:35:18;;;;;;;4.50;3.50;;;16.30;85.20;;;;;;5039783;28;20487;-65
2022/05/23 04:37:52;;;;;;;5.03;3.90;;;16.30;84.70;;;;;;5053933;28;20439;-64
2022/05/23 04:40:21;;;;;;;4.80;3.10;;;16.40;84.80;;;;;;5053805;28;20440;-65
2022/05/23 04:42:49;;;;;;;8.50;4.53;;;16.50;84.60;;;;;;5054262;28;20788;-65
2022/05/23 04:45:19;;;;;;;5.40;3.40;;;16.60;84.20;;;;;;5053696;28;20441;-65
2022/05/23 04:50:32;;;;;;;5.10;3.53;;;16.70;83.70;;;;;;5053794;28;20459;-64
2022/05/23 04:53:01;;;;;;;5.00;2.90;;;16.90;83.70;;;;;;5053630;28;20837;-65
2022/05/23 04:55:30;;;;;;;5.60;3.30;;;16.90;83.70;;;;;;5053380;28;20535;-64
2022/05/23 04:57:58;;;;;;;6.10;3.97;;;17.00;84.10;;;;;;5052989;28;20448;-64
2022/05/23 05:00:29;;;;;;;5.83;3.83;;;17.10;83.70;;;;;;5053919;28;20443;-64
2022/05/23 05:02:59;;;;;;;7.43;4.23;;;17.10;83.30;;;;;;5050176;28;20449;-64
2022/05/23 05:05:27;;;;;;;5.03;4.33;;;17.20;82.80;;;;;;5051552;28;20440;-64
2022/05/23 05:07:55;;;;;;;5.70;3.97;;;17.20;82.50;;;;;;5051118;28;20441;-65
2022/05/23 05:10:23;;;;;;;5.13;4.00;;;17.20;82.40;;;;;;5051078;28;20463;-65
2022/05/23 05:12:54;;;;;;;6.57;5.10;;;17.40;82.90;;;;;;5051090;28;20527;-65
2022/05/23 05:15:22;;;;;;;6.70;4.53;;;17.50;82.40;;;;;;5050700;28;20479;-64
2022/05/23 05:17:51;;;;;;;7.10;4.47;;;17.50;82.10;;;;;;5051394;28;20806;-64
2022/05/23 05:20:19;;;;;;;8.33;6.00;;;17.60;82.30;;;;;;5051680;28;20444;-64
2022/05/23 05:22:47;;;;;;;6.27;4.80;;;17.70;82.00;;;;;;5051181;28;20841;-66
2022/05/23 05:25:18;;;;;;;8.20;5.30;;;17.90;82.40;;;;;;5051089;28;20854;-64
2022/05/23 05:27:49;;;;;;;5.20;4.53;;;18.00;81.70;;;;;;5050999;28;20487;-65
2022/05/23 05:30:22;;;;;;;5.63;5.00;;;18.10;81.80;;;;;;5050748;28;20526;-65
2022/05/23 05:33:02;;;;;;;8.50;4.10;;;18.20;81.30;;;;;;5047823;28;20927;-65
2022/05/23 05:35:35;;;;;;;11.47;4.47;;;18.30;80.30;;;;;;5051128;28;20538;-65
2022/05/23 05:38:09;;;;;;;4.60;4.07;;;18.40;79.50;;;;;;5046466;28;20449;-64
2022/05/23 05:40:37;;;;;;;5.70;4.73;;;18.50;78.10;;;;;;5050153;28;20535;-65
2022/05/23 05:43:08;;;;;;;5.23;4.73;;;18.60;76.50;;;;;;5048630;28;20469;-65
2022/05/23 05:45:40;;;;;;;5.43;4.00;;;18.70;76.70;;;;;;5050136;28;20441;-64
2022/05/23 05:48:09;;;;;;;4.47;3.60;;;18.70;76.50;;;;;;5048805;28;20797;-65
2022/05/23 05:50:39;;;;;;;5.13;3.60;;;18.80;76.90;;;;;;5049278;28;20441;-66
2022/05/23 05:53:10;;;;;;;6.00;3.40;;;18.90;77.00;;;;;;5049979;28;20437;-64
2022/05/23 05:55:38;;;;;;;5.87;3.80;;;18.90;76.30;;;;;;5050252;28;20488;-66
2022/05/23 05:58:06;;;;;;;3.93;3.20;;;19.00;76.90;;;;;;5048560;28;20445;-66
2022/05/23 06:00:33;;;;;;;3.90;3.50;;;19.10;76.80;;;;;;5050478;28;20444;-65
2022/05/23 06:03:00;;;;;;;4.53;3.47;;;19.20;76.40;;;;;;5050690;28;20534;-65
2022/05/23 06:05:28;;;;;;;4.23;3.80;;;19.20;77.20;;;;;;5049983;28;20441;-65
2022/05/23 06:13:24;;;;;;;4.97;3.67;;;19.30;75.40;;;;;;5049568;28;20455;-65
2022/05/23 06:15:51;;;;;;;3.97;3.10;;;19.30;75.60;;;;;;5050021;28;20480;-65
2022/05/23 06:18:18;;;;;;;4.83;3.47;;;19.30;75.80;;;;;;5049236;28;20532;-64
2022/05/23 06:20:47;;;;;;;4.10;2.93;;;19.40;75.70;;;;;;5050354;28;20441;-65
2022/05/23 06:23:14;;;;;;;6.13;3.30;;;19.50;76.40;;;;;;5049131;28;20448;-66
2022/05/23 06:25:41;;;;;;;4.27;3.07;;;19.50;74.80;;;;;;5049036;28;20437;-65
2022/05/23 06:28:08;;;;;;;3.83;2.80;;;19.50;75.20;;;;;;5048901;28;20437;-65
2022/05/23 06:30:36;;;;;;;4.40;3.53;;;19.60;76.00;;;;;;5049438;28;20864;-65
2022/05/23 06:33:04;;;;;;;7.43;4.37;;;19.60;76.30;;;;;;5048675;28;20433;-65
2022/05/23 06:35:31;;;;;;;6.33;4.50;;;19.70;75.80;;;;;;5048207;28;20564;-65
2022/05/23 06:37:59;;;;;;;6.60;4.87;;;19.90;76.20;;;;;;5034867;28;20445;-66
2022/05/23 06:40:27;;;;;;;5.90;4.57;;;19.90;76.10;;;;;;5022463;28;20563;-67
2022/05/23 06:42:54;;;;;;;4.03;3.40;;;20.00;76.30;;;;;;5028295;28;20444;-65
2022/05/23 06:45:21;;;;;;;5.30;4.30;;;20.00;76.10;;;;;;5029590;28;20824;-68
2022/05/23 06:47:49;;;;;;;5.40;3.03;;;20.20;75.90;;;;;;5032917;28;20465;-66
2022/05/23 06:50:16;;;;;;;4.43;3.00;;;20.30;75.70;;;;;;5040324;28;20417;-65
2022/05/23 06:52:43;;;;;;;4.70;3.40;;;20.40;76.30;;;;;;5043779;28;20460;-66
2022/05/23 06:55:12;;;;;;;7.10;3.57;;;20.40;74.90;;;;;;5047887;28;20905;-65
2022/05/23 06:57:39;;;;;;;6.03;3.53;;;20.50;75.20;;;;;;5048850;28;20448;-65
2022/05/23 07:00:09;;;;;;;5.37;3.93;;;20.50;74.70;;;;;;5042473;28;21196;-68
2022/05/23 07:02:36;;;;;;;4.80;3.27;;;20.60;74.10;;;;;;5038334;28;20845;-65
2022/05/23 07:13:30;;;;;;;9.17;4.20;;;20.60;74.80;;;;;;5044539;28;20439;-65
2022/05/23 07:15:59;;;;;;;8.73;4.70;;;20.50;76.20;;;;;;5049204;28;20476;-65
2022/05/23 07:18:27;;;;;;;4.80;3.87;;;20.60;76.90;;;;;;5048688;28;20479;-65
2022/05/23 07:20:54;;;;;;;13.43;4.30;;;20.60;77.10;;;;;;5051785;28;20852;-65
2022/05/23 07:23:22;;;;;;;5.60;3.93;;;20.70;77.10;;;;;;5044113;28;20448;-66
2022/05/23 07:25:51;;;;;;;8.60;3.73;;;20.80;77.30;;;;;;5050680;28;20444;-65
2022/05/23 07:28:18;;;;;;;5.87;3.77;;;20.90;76.80;;;;;;5051026;28;20437;-65
2022/05/23 07:30:46;;;;;;;4.30;3.70;;;20.90;75.60;;;;;;5051840;28;20476;-64
2022/05/23 07:33:13;;;;;;;5.93;3.97;;;20.90;76.60;;;;;;5050495;28;20444;-66
2022/05/23 07:35:40;;;;;;;8.07;3.80;;;21.00;76.70;;;;;;5051779;28;20485;-65
2022/05/23 07:38:09;;;;;;;6.47;3.53;;;20.90;77.30;;;;;;5050772;28;20459;-67
2022/05/23 07:40:37;;;;;;;7.43;4.13;;;20.90;77.30;;;;;;5041752;28;20448;-68
2022/05/23 07:43:06;;;;;;;4.97;3.77;;;20.90;76.10;;;;;;5046226;28;21185;-65
2022/05/23 07:45:33;;;;;;;9.47;4.53;;;21.10;74.70;;;;;;5052178;28;20453;-65
2022/05/23 07:48:00;;;;;;;6.57;4.03;;;21.20;74.60;;;;;;5050810;28;20477;-65
2022/05/23 07:50:29;;;;;;;7.17;3.80;;;21.30;73.80;;;;;;5050192;28;20472;-65
2022/05/23 08:01:24;;;;;;;9.27;3.77;;;22.50;74.00;;;;;;5044374;28;20579;-65
2022/05/23 08:03:52;;;;;;;8.87;4.20;;;22.80;73.40;;;;;;5050972;28;20811;-66
2022/05/23 08:06:20;;;;;;;8.27;3.80;;;23.20;73.90;;;;;;5050317;28;20437;-66
2022/05/23 08:08:47;;;;;;;6.03;3.93;;;23.40;72.60;;;;;;5049660;28;20429;-65
2022/05/23 08:11:14;;;;;;;5.40;3.50;;;23.70;68.50;;;;;;5051124;28;20448;-66
2022/05/23 08:13:47;;;;;;;5.53;3.20;;;24.00;68.60;;;;;;5050245;28;20467;-65
2022/05/23 08:16:14;;;;;;;7.73;3.20;;;24.20;64.00;;;;;;5049636;28;20491;-64
2022/05/23 08:18:41;;;;;;;6.53;3.40;;;24.40;65.30;;;;;;5050165;28;20453;-68
2022/05/23 08:21:08;;;;;;;4.70;2.90;;;24.60;65.20;;;;;;5049180;28;20534;-65
2022/05/23 08:23:36;;;;;;;9.10;3.70;;;24.90;62.50;;;;;;5049906;28;20535;-65
2022/05/23 08:26:03;;;;;;;6.57;3.80;;;25.00;59.60;;;;;;5050710;28;20453;-65
2022/05/23 08:28:30;;;;;;;8.77;3.40;;;25.20;57.40;;;;;;5049851;28;20446;-64
2022/05/23 08:30:59;;;;;;;4.43;3.20;;;25.40;57.90;;;;;;5048611;28;20478;-65
2022/05/23 08:33:27;;;;;;;6.33;3.13;;;25.60;56.60;;;;;;5049633;28;20446;-66
2022/05/23 08:35:54;;;;;;;5.07;2.53;;;25.70;55.30;;;;;;5049287;28;20467;-65
2022/05/23 08:38:21;;;;;;;5.63;3.43;;;25.70;54.90;;;;;;5050157;28;20850;-64
2022/05/23 08:41:02;;;;;;;7.87;3.83;;;25.80;55.40;;;;;;5051792;28;20493;-65
2022/05/23 08:43:35;;;;;;;6.73;3.80;;;25.90;55.60;;;;;;5050678;28;20435;-65
2022/05/23 08:46:05;;;;;;;4.30;3.50;;;26.00;56.20;;;;;;5053129;28;20889;-65
2022/05/23 08:48:43;;;;;;;6.57;3.20;;;26.10;54.90;;;;;;5052843;28;20472;-65
2022/05/23 08:51:15;;;;;;;4.83;3.00;;;26.10;53.80;;;;;;5052268;28;20445;-65
2022/05/23 08:53:49;;;;;;;6.23;3.03;;;26.20;54.20;;;;;;5051787;28;20464;-66
2022/05/23 08:56:24;;;;;;;4.80;3.07;;;26.30;54.70;;;;;;5051735;28;20519;-70
2022/05/23 08:58:56;;;;;;;6.53;3.10;;;26.40;54.20;;;;;;5050985;28;20914;-66
2022/05/23 09:01:27;;;;;;;7.20;3.43;;;26.50;53.60;;;;;;5052110;28;20846;-65
2022/05/23 09:04:02;;;;;;;5.30;2.97;;;26.60;54.50;;;;;;5052577;28;20436;-65
2022/05/23 09:06:31;;;;;;;6.70;3.33;;;26.70;52.70;;;;;;5048624;28;20436;-65
2022/05/23 09:09:01;;;;;;;5.90;2.70;;;26.80;53.40;;;;;;5051501;28;21008;-65
2022/05/23 09:11:32;;;;;;;4.00;3.30;;;26.90;54.30;;;;;;5052428;28;20444;-65
2022/05/23 09:14:00;;;;;;;7.93;3.47;;;27.00;52.80;;;;;;5051052;28;21461;-65
2022/05/23 09:16:32;;;;;;;5.47;3.20;;;27.20;51.90;;;;;;5051478;28;20486;-65
2022/05/23 09:19:03;;;;;;;5.60;3.10;;;27.20;51.30;;;;;;5054007;28;20803;-65
2022/05/23 09:24:11;;;;;;;4.73;3.10;;;27.30;51.30;;;;;;5053253;28;20424;-65
2022/05/23 09:26:38;;;;;;;6.03;3.73;;;27.50;51.00;;;;;;5053395;28;21015;-66
2022/05/23 09:29:08;;;;;;;7.60;3.30;;;27.50;50.60;;;;;;5053859;28;20444;-65
2022/05/23 09:31:43;;;;;;;5.53;3.17;;;27.60;50.40;;;;;;5053829;28;20455;-65
2022/05/23 09:34:29;;;;;;;6.93;3.50;;;27.60;49.70;;;;;;5053560;28;20440;-65
2022/05/23 09:36:58;;;;;;;7.80;3.83;;;27.50;48.10;;;;;;5053592;28;20500;-65
2022/05/23 09:39:28;;;;;;;7.23;2.80;;;27.50;48.40;;;;;;5053638;28;20999;-65
2022/05/23 09:47:50;;;;;;;5.57;3.47;;;27.60;49.20;;;;;;5053251;28;20984;-65
2022/05/23 09:50:37;;;;;;;8.40;3.37;;;27.60;47.70;;;;;;5053484;28;20443;-65
2022/05/23 09:53:04;;;;;;;6.63;3.00;;;27.60;49.00;;;;;;5053705;28;20467;-65
2022/05/23 09:55:33;;;;;;;8.23;4.73;;;27.60;48.70;;;;;;5053484;28;20458;-65
2022/05/23 09:58:03;;;;;;;9.33;4.20;;;27.60;50.30;;;;;;5053195;28;20527;-64
2022/05/23 10:00:36;;;;;;;6.70;3.73;;;27.70;49.70;;;;;;5053173;28;20938;-65
2022/05/23 10:03:07;;;;;;;5.10;3.43;;;27.90;49.00;;;;;;5053022;28;20436;-65
2022/05/23 10:05:36;;;;;;;9.77;4.30;;;28.00;50.20;;;;;;5053459;28;20443;-65
2022/05/23 10:08:06;;;;;;;5.13;3.33;;;28.00;49.40;;;;;;5053172;28;20530;-65
2022/05/23 10:10:36;;;;;;;6.37;4.00;;;28.10;49.00;;;;;;5053252;28;20474;-65
2022/05/23 10:13:23;;;;;;;8.27;5.13;;;28.20;49.70;;;;;;5053150;28;20756;-65
2022/05/23 10:15:53;;;;;;;10.43;3.53;;;28.30;47.80;;;;;;5052990;28;20927;-65
2022/05/23 10:18:25;;;;;;;5.60;3.10;;;28.30;47.00;;;;;;5052793;28;20524;-65
2022/05/23 10:20:52;;;;;;;5.07;3.27;;;28.30;47.50;;;;;;5052968;28;20531;-65
2022/05/23 10:23:22;;;;;;;4.77;3.20;;;28.30;47.20;;;;;;5053124;28;20530;-65
2022/05/23 10:25:59;;;;;;;7.30;3.87;;;28.30;50.30;;;;;;5053017;28;20431;-65
2022/05/23 10:28:37;;;;;;;4.83;3.43;;;28.40;50.30;;;;;;5053024;28;20480;-65
2022/05/23 10:31:15;;;;;;;8.63;3.87;;;28.40;49.00;;;;;;5052961;28;20440;-66
2022/05/23 10:33:47;;;;;;;7.87;3.90;;;28.40;50.80;;;;;;5052588;28;20804;-66
2022/05/23 10:36:19;;;;;;;8.47;4.97;;;28.50;52.20;;;;;;5052745;28;20543;-65
2022/05/23 10:44:30;;;;;;;5.97;3.70;;;29.00;50.50;;;;;;5052844;28;20915;-65
2022/05/23 10:47:08;;;;;;;7.20;3.87;;;29.10;49.50;;;;;;5052812;28;20544;-65
2022/05/23 10:49:44;;;;;;;4.93;4.23;;;29.20;49.00;;;;;;5052812;28;20467;-65
2022/05/23 10:52:18;;;;;;;5.43;3.10;;;29.20;48.40;;;;;;5052375;28;20929;-66
2022/05/23 10:54:55;;;;;;;7.93;4.50;;;29.30;49.70;;;;;;5054125;28;20455;-65
2022/05/23 10:57:33;;;;;;;6.50;4.10;;;29.40;47.50;;;;;;5056522;28;20475;-66
2022/05/23 11:00:07;;;;;;;13.83;4.23;;;29.30;48.10;;;;;;5056271;28;20539;-65
2022/05/23 11:02:44;;;;;;;7.17;3.93;;;29.40;48.20;;;;;;5056801;28;20441;-65
2022/05/23 11:05:18;;;;;;;12.77;4.33;;;29.40;48.50;;;;;;5056702;28;20474;-65
2022/05/23 11:07:56;;;;;;;9.33;4.17;;;29.60;49.20;;;;;;5056437;28;20436;-65
2022/05/23 11:10:28;;;;;;;8.00;4.10;;;29.90;47.10;;;;;;5056387;28;20467;-65
2022/05/23 11:13:09;;;;;;;9.07;4.27;;;30.10;46.30;;;;;;5056515;28;20483;-65
2022/05/23 11:15:45;;;;;;;9.73;4.07;;;30.30;46.00;;;;;;5056502;28;20472;-66
2022/05/23 11:18:19;;;;;;;7.90;3.90;;;30.30;45.20;;;;;;5055993;28;20490;-66
2022/05/23 11:20:50;;;;;;;16.23;4.77;;;30.30;45.00;;;;;;5056004;28;20514;-65
2022/05/23 11:23:23;;;;;;;6.90;4.47;;;30.30;45.20;;;;;;5056180;28;20459;-65
2022/05/23 11:25:54;;;;;;;7.20;3.60;;;30.40;43.50;;;;;;5056185;28;20751;-65
2022/05/23 11:34:05;;;;;;;5.10;3.50;;;30.90;44.50;;;;;;5056110;28;21049;-65
2022/05/23 11:36:45;;;;;;;9.60;3.93;;;31.30;43.20;;;;;;5055858;28;20871;-65
2022/05/23 11:39:47;;;;;;;8.43;4.57;;;31.40;42.50;;;;;;5055871;28;20798;-67
2022/05/23 11:42:16;;;;;;;6.30;3.90;;;31.60;42.30;;;;;;5055895;28;20437;-65
2022/05/23 11:44:59;;;;;;;11.17;5.30;;;31.70;42.20;;;;;;5055818;28;20441;-65
2022/05/23 11:47:28;;;;;;;9.10;4.43;;;31.70;42.00;;;;;;5055690;28;20526;-65
2022/05/23 11:50:10;;;;;;;9.27;4.03;;;31.70;40.90;;;;;;5055728;28;20476;-65
2022/05/23 11:52:47;;;;;;;7.23;4.20;;;31.70;42.20;;;;;;5055309;28;20532;-66
2022/05/23 11:55:48;;;;;;;14.20;4.83;;;31.90;43.00;;;;;;5055590;28;20440;-66
2022/05/23 11:58:22;;;;;;;6.50;4.27;;;32.00;41.90;;;;;;5021660;28;20581;-65
2022/05/23 12:01:04;;;;;;;13.53;4.70;;;32.20;42.00;;;;;;5055573;28;20445;-65
2022/05/23 12:04:21;;;;;;;8.33;4.03;;;32.30;41.20;;;;;;5055474;28;20524;-65
2022/05/23 12:06:49;;;;;;;11.10;3.90;;;32.30;41.60;;;;;;5055058;28;20436;-65
2022/05/23 12:09:38;;;;;;;8.73;5.10;;;32.30;42.20;;;;;;5054974;28;20435;-65
2022/05/23 12:12:47;;;;;;;10.07;6.07;;;32.30;41.20;;;;;;5055433;28;20463;-65
2022/05/23 12:15:47;;;;;;;7.37;4.87;;;32.30;42.60;;;;;;4993402;28;20440;-66
2022/05/23 12:18:35;;;;;;;6.67;4.20;;;32.10;42.20;;;;;;4993364;28;21144;-65
2022/05/23 12:21:06;;;;;;;8.70;4.03;;;32.10;42.90;;;;;;5047576;28;20874;-65
2022/05/23 12:23:37;;;;;;;8.30;4.67;;;32.00;42.40;;;;;;5055289;28;20441;-65
2022/05/23 12:26:22;;;;;;;9.03;5.07;;;31.90;42.80;;;;;;5054994;28;20484;-65
2022/05/23 12:28:52;;;;;;;6.27;4.80;;;31.50;41.90;;;;;;5055052;28;20441;-65
2022/05/23 12:31:20;;;;;;;10.43;4.50;;;31.10;42.30;;;;;;5055105;28;20437;-65
2022/05/23 12:34:14;;;;;;;5.90;3.83;;;30.70;42.40;;;;;;5054826;28;20441;-65
2022/05/23 12:36:49;;;;;;;8.40;3.70;;;30.20;43.30;;;;;;5018912;28;20992;-65
2022/05/23 12:39:40;;;;;;;6.13;4.30;;;29.80;43.90;;;;;;5054463;28;20432;-65
2022/05/23 12:42:18;;;;;;;7.27;4.77;;;29.40;44.60;;;;;;5025124;28;20467;-65
2022/05/23 12:45:18;;;;;;;11.00;4.90;;;29.10;45.70;;;;;;5054724;28;20523;-65
2022/05/23 12:48:00;;;;;;;6.83;4.40;;;28.80;45.70;;;;;;5054253;28;20959;-65
2022/05/23 12:50:43;;;;;;;7.20;4.03;;;28.50;45.60;;;;;;5053985;28;20561;-64
2022/05/23 12:53:37;;;;;;;9.57;5.10;;;28.30;46.00;;;;;;5054799;28;20503;-65
2022/05/23 12:56:28;;;;;;;8.80;4.80;;;28.00;46.90;;;;;;5054429;28;20527;-65
2022/05/23 12:59:28;;;;;;;20.13;5.00;;;27.80;51.80;;;;;;5054414;28;20480;-65
2022/05/23 13:02:02;;;;;;;13.00;5.47;;;27.70;54.60;;;;;;5040530;28;20445;-65
2022/05/23 13:04:35;;;;;;;11.93;4.83;;;27.70;56.40;;;;;;5053910;28;20444;-65
2022/05/23 13:07:07;;;;;;;12.10;5.03;;;27.60;57.20;;;;;;5054180;28;20531;-65
2022/05/23 13:09:39;;;;;;;11.37;5.00;;;27.70;58.30;;;;;;5054382;28;20447;-66
2022/05/23 13:12:10;;;;;;;6.07;4.50;;;27.80;58.80;;;;;;5054216;28;20443;-66
2022/05/23 13:14:50;;;;;;;9.93;5.10;;;27.80;58.00;;;;;;5054194;28;20441;-65
2022/05/23 13:17:31;;;;;;;10.57;4.80;;;27.70;56.80;;;;;;5053553;28;20479;-65
2022/05/23 13:22:42;;;;;;;9.70;5.37;;;27.50;57.60;;;;;;5053785;28;20423;-65
2022/05/23 13:25:10;;;;;;;13.47;5.57;;;27.40;57.40;;;;;;5053891;28;20443;-65
2022/05/23 13:27:45;;;;;;;9.40;5.00;;;27.20;58.80;;;;;;5053860;28;20783;-65
2022/05/23 13:30:23;;;;;;;7.10;4.70;;;27.10;57.70;;;;;;5054099;28;20519;-65
2022/05/23 13:33:04;;;;;;;7.77;4.53;;;27.00;57.70;;;;;;5053798;28;20938;-65
2022/05/23 13:35:31;;;;;;;9.40;4.63;;;26.90;58.40;;;;;;5053741;28;20532;-69
2022/05/23 13:38:16;;;;;;;9.77;4.83;;;26.70;58.60;;;;;;5053207;28;20481;-65
2022/05/23 13:40:46;;;;;;;6.87;4.70;;;26.60;59.00;;;;;;5053579;28;20438;-65
2022/05/23 13:43:14;;;;;;;12.43;6.27;;;26.40;59.40;;;;;;5052977;28;20443;-65
2022/05/23 13:45:42;;;;;;;9.50;4.97;;;26.20;62.20;;;;;;5053539;28;20483;-65
2022/05/23 13:48:16;;;;;;;9.13;4.27;;;26.10;63.10;;;;;;5053068;28;20866;-65
2022/05/23 13:50:46;;;;;;;11.43;5.50;;;26.00;64.40;;;;;;5053360;28;20444;-65
2022/05/23 13:53:17;;;;;;;10.77;5.27;;;25.70;65.80;;;;;;5053521;28;20791;-64
2022/05/23 13:55:50;;;;;;;11.10;5.23;;;25.60;67.10;;;;;;5053267;28;20790;-65
2022/05/23 13:58:19;;;;;;;13.97;6.57;;;25.50;67.80;;;;;;5053408;28;20489;-64
2022/05/23 14:00:53;;;;;;;14.63;7.43;;;25.40;69.90;;;;;;5053112;28;20522;-65
2022/05/23 14:03:28;;;;;;;14.70;6.87;;;25.20;69.80;;;;;;5053363;28;20448;-64
2022/05/23 14:05:56;;;;;;;17.30;7.53;;;25.10;71.60;;;;;;5053329;28;20439;-64
2022/05/23 14:08:33;;;;;;;15.80;5.57;;;24.90;74.70;;;;;;5053069;28;20443;-64
2022/05/23 14:11:03;;;;;;;7.50;3.27;;;24.30;67.80;;;;;;5053123;28;20986;-64